Time;durP1;ratioP1;P1;durP2;ratioP2;P2;SDS_P1;SDS_P2;PMS_P1;PMS_P2;Temp;Humidity;BMP_temperature;BMP_pressure;BME280_temperature;BME280_humidity;BME280_pressure;Samples;Min_cycle;Max_cycle;Signal;HPM_P1;HPM_P2
2022/06/13 00:00:34;;;;;;;2.50;2.20;;;;;;;18.42;100.00;96532.69;5086787;28;20270;-89
2022/06/13 00:03:02;;;;;;;3.43;2.40;;;;;;;18.39;100.00;96535.97;5078917;28;20295;-88
2022/06/13 00:05:31;;;;;;;3.20;2.13;;;;;;;18.36;100.00;96535.72;5085769;28;20215;-88
2022/06/13 00:07:58;;;;;;;3.80;2.20;;;;;;;18.35;100.00;96531.34;5073662;28;20225;-87
2022/06/13 00:10:25;;;;;;;3.60;2.33;;;;;;;18.34;100.00;96529.69;5082082;28;20236;-88
2022/06/13 00:12:52;;;;;;;3.07;2.07;;;;;;;18.28;100.00;96517.97;5085736;28;20305;-88
2022/06/13 00:15:19;;;;;;;2.10;1.90;;;;;;;18.24;100.00;96507.81;5084524;28;20220;-88
2022/06/13 00:17:47;;;;;;;3.07;2.37;;;;;;;18.20;100.00;96504.03;5085619;28;20284;-88
2022/06/13 00:20:14;;;;;;;2.40;2.20;;;;;;;18.20;100.00;96506.75;5083729;28;20197;-88
2022/06/13 00:22:43;;;;;;;2.50;2.17;;;;;;;18.10;100.00;96500.19;5085729;28;20228;-88
2022/06/13 00:25:10;;;;;;;5.20;2.00;;;;;;;18.06;100.00;96487.34;5084577;28;20197;-88
2022/06/13 00:27:38;;;;;;;4.17;2.27;;;;;;;18.07;100.00;96488.97;5083948;28;20220;-88
2022/06/13 00:30:08;;;;;;;2.20;2.00;;;;;;;18.19;100.00;96500.47;5086719;28;20213;-88
2022/06/13 00:32:35;;;;;;;1.93;1.73;;;;;;;18.24;100.00;96485.97;5076051;28;20213;-88
2022/06/13 00:35:03;;;;;;;3.03;1.83;;;;;;;18.33;100.00;96489.78;5080684;28;20211;-88
2022/06/13 00:37:31;;;;;;;1.97;1.70;;;;;;;18.13;100.00;96485.97;5082180;28;20216;-88
2022/06/13 00:40:00;;;;;;;5.43;1.80;;;;;;;18.04;100.00;96487.63;5079330;28;20322;-88
2022/06/13 00:42:28;;;;;;;3.13;1.80;;;;;;;17.98;100.00;96499.66;5082195;28;20209;-88
2022/06/13 00:45:18;;;;;;;3.17;1.87;;;;;;;18.02;100.00;96487.09;5084993;28;20288;-88
2022/06/13 00:47:49;;;;;;;1.73;1.63;;;;;;;17.96;100.00;96482.69;5095225;28;20238;-88
2022/06/13 00:50:21;;;;;;;4.23;2.00;;;;;;;17.92;100.00;96478.88;5098621;28;20230;-87
2022/06/13 00:52:53;;;;;;;5.33;1.67;;;;;;;17.94;100.00;96479.44;5086449;28;20201;-88
2022/06/13 00:55:28;;;;;;;1.90;1.60;;;;;;;17.98;100.00;96472.31;5085987;28;20193;-88
2022/06/13 00:57:57;;;;;;;1.83;1.60;;;;;;;17.94;100.00;96471.25;5087122;28;20223;-88
2022/06/13 01:00:25;;;;;;;2.80;1.60;;;;;;;18.00;100.00;96475.59;5091645;28;20200;-87
2022/06/13 01:02:52;;;;;;;2.90;1.70;;;;;;;18.00;100.00;96482.97;5085708;28;20206;-87
2022/06/13 01:05:23;;;;;;;2.40;1.83;;;;;;;17.88;100.00;96466.84;5074910;28;20226;-88
2022/06/13 01:07:52;;;;;;;3.80;1.57;;;;;;;17.87;100.00;96478.06;5085749;28;20263;-87
2022/06/13 01:13:08;;;;;;;1.93;1.67;;;;;;;17.82;100.00;96462.50;5080893;28;20217;-87
2022/06/13 01:15:57;;;;;;;1.53;1.43;;;;;;;17.87;100.00;96462.47;5075070;28;20225;-88
2022/06/13 01:18:47;;;;;;;1.70;1.60;;;;;;;17.86;100.00;96463.59;5079031;28;20267;-87
2022/06/13 01:21:24;;;;;;;2.90;1.80;;;;;;;17.91;100.00;96465.50;5077570;28;20277;-88
2022/06/13 01:24:22;;;;;;;1.53;1.43;;;;;;;17.80;100.00;96459.22;5075439;28;20228;-87
2022/06/13 01:27:41;;;;;;;2.93;1.70;;;;;;;17.79;100.00;96452.09;5079447;28;20260;-87
2022/06/13 01:30:48;;;;;;;1.53;1.43;;;;;;;17.74;100.00;96471.25;5078229;28;20220;-87
2022/06/13 01:33:24;;;;;;;1.90;1.60;;;;;;;17.67;100.00;96463.31;5074357;28;20331;-88
2022/06/13 01:36:05;;;;;;;3.20;1.83;;;;;;;17.72;100.00;96474.22;5072974;28;20295;-87
2022/06/13 01:38:43;;;;;;;2.30;1.50;;;;;;;17.80;100.00;96455.66;5083368;28;20235;-87
2022/06/13 01:41:18;;;;;;;2.13;1.60;;;;;;;17.86;100.00;96462.78;5082693;28;20205;-87
2022/06/13 01:44:04;;;;;;;1.80;1.70;;;;;;;17.96;100.00;96465.47;5084191;28;20240;-87
2022/06/13 01:46:43;;;;;;;1.80;1.50;;;;;;;17.83;100.00;96471.50;5083249;28;20230;-87
2022/06/13 01:49:26;;;;;;;2.07;1.63;;;;;;;17.84;100.00;96465.78;5084419;28;20319;-87
2022/06/13 01:52:02;;;;;;;5.27;2.30;;;;;;;17.76;100.00;96460.88;5061822;28;20209;-87
2022/06/13 01:54:39;;;;;;;2.33;1.90;;;;;;;17.76;100.00;96464.41;5059294;28;20205;-87
2022/06/13 01:57:16;;;;;;;1.87;1.40;;;;;;;17.80;100.00;96456.47;5067165;28;20242;-87
2022/06/13 01:59:51;;;;;;;2.17;1.67;;;;;;;17.83;100.00;96469.59;5070926;28;20212;-87
2022/06/13 02:02:31;;;;;;;2.67;1.60;;;;;;;17.83;100.00;96479.72;5066806;28;20203;-87
2022/06/13 02:05:06;;;;;;;2.90;1.73;;;;;;;17.87;100.00;96481.59;5063951;28;20211;-88
2022/06/13 02:07:39;;;;;;;3.57;1.70;;;;;;;17.75;100.00;96486.53;5065089;28;20250;-88
2022/06/13 02:10:11;;;;;;;2.00;1.80;;;;;;;17.83;100.00;96488.72;5068617;28;20290;-88
2022/06/13 02:12:39;;;;;;;1.60;1.47;;;;;;;17.85;100.00;96489.28;5062554;28;20216;-87
2022/06/13 02:15:10;;;;;;;1.90;1.70;;;;;;;17.66;100.00;96477.25;5071018;28;20217;-87
2022/06/13 02:17:45;;;;;;;3.00;1.60;;;;;;;17.71;100.00;96479.97;5072227;28;20201;-87
2022/06/13 02:20:17;;;;;;;2.37;1.70;;;;;;;17.68;100.00;96477.78;5069593;28;20208;-87
2022/06/13 02:22:48;;;;;;;2.10;1.90;;;;;;;17.72;100.00;96468.78;5062694;28;20224;-87
2022/06/13 02:25:21;;;;;;;1.93;1.40;;;;;;;17.74;100.00;96460.31;5063332;28;20212;-87
2022/06/13 02:27:55;;;;;;;3.13;1.63;;;;;;;17.67;100.00;96462.50;5062947;28;20209;-87
2022/06/13 02:30:27;;;;;;;1.70;1.60;;;;;;;17.71;100.00;96475.31;5069125;28;20204;-87
2022/06/13 02:33:04;;;;;;;2.73;1.53;;;;;;;17.76;100.00;96469.06;5065734;28;20694;-86
2022/06/13 02:35:36;;;;;;;1.60;1.50;;;;;;;17.69;100.00;96479.44;5065777;28;20269;-87
2022/06/13 02:38:08;;;;;;;1.67;1.57;;;;;;;17.71;100.00;96488.97;5085782;28;20277;-88
2022/06/13 02:40:44;;;;;;;1.80;1.70;;;;;;;17.71;100.00;96482.69;5069666;28;20232;-88
2022/06/13 02:43:16;;;;;;;3.63;1.90;;;;;;;17.65;100.00;96462.75;5074188;28;20208;-88
2022/06/13 02:45:48;;;;;;;2.17;1.73;;;;;;;17.56;100.00;96458.91;5075825;28;20207;-87
2022/06/13 02:48:20;;;;;;;2.00;1.83;;;;;;;17.51;100.00;96469.00;5066279;28;20240;-87
2022/06/13 02:50:55;;;;;;;1.93;1.60;;;;;;;17.60;100.00;96476.41;5083252;28;20228;-87
2022/06/13 02:53:29;;;;;;;6.20;5.60;;;;;;;17.54;100.00;96468.44;5088888;28;20253;-87
2022/06/13 02:56:08;;;;;;;2.20;2.00;;;;;;;17.57;100.00;96470.66;5082614;28;20208;-87
2022/06/13 02:58:43;;;;;;;2.23;1.83;;;;;;;17.57;100.00;96473.38;5081803;28;20229;-87
2022/06/13 03:01:17;;;;;;;3.00;1.83;;;;;;;17.60;100.00;96473.66;5084264;28;20299;-87
2022/06/13 03:03:55;;;;;;;2.50;1.70;;;;;;;17.70;100.00;96475.59;5081235;28;20208;-87
2022/06/13 03:06:27;;;;;;;2.00;1.80;;;;;;;17.69;100.00;96463.84;5102508;27;20208;-87
2022/06/13 03:09:03;;;;;;;2.03;1.73;;;;;;;17.64;100.00;96469.31;5081140;28;20331;-87
2022/06/13 03:11:40;;;;;;;2.17;1.80;;;;;;;17.53;100.00;96470.34;5087554;28;20631;-87
2022/06/13 03:14:20;;;;;;;1.70;1.60;;;;;;;17.58;100.00;96483.22;5089805;28;20214;-87
2022/06/13 03:16:54;;;;;;;2.63;2.03;;;;;;;17.56;100.00;96469.00;5090277;28;20310;-87
2022/06/13 03:19:31;;;;;;;2.13;1.90;;;;;;;17.55;100.00;96467.34;5092161;28;20223;-87
2022/06/13 03:22:05;;;;;;;2.13;1.87;;;;;;;17.40;100.00;96466.25;5084120;28;20211;-87
2022/06/13 03:24:41;;;;;;;3.60;1.90;;;;;;;17.42;100.00;96466.00;5084690;28;20201;-88
2022/06/13 03:27:30;;;;;;;2.37;1.70;;;;;;;17.47;100.00;96452.34;5085867;28;20707;-87
2022/06/13 03:30:03;;;;;;;3.40;1.80;;;;;;;17.54;100.00;96462.97;5086413;28;20267;-88
2022/06/13 03:32:36;;;;;;;3.10;1.80;;;;;;;17.50;100.00;96470.91;5075556;28;20213;-87
2022/06/13 03:35:09;;;;;;;2.23;1.73;;;;;;;17.53;100.00;96462.16;5093773;28;20466;-87
2022/06/13 03:37:41;;;;;;;3.00;2.03;;;;;;;17.49;100.00;96461.09;5085403;28;20209;-87
2022/06/13 03:40:12;;;;;;;2.77;1.80;;;;;;;17.43;100.00;96469.53;5085604;28;20225;-87
2022/06/13 03:42:44;;;;;;;3.00;2.00;;;;;;;17.38;100.00;96479.34;5075014;28;20208;-87
2022/06/13 03:45:17;;;;;;;3.33;2.10;;;;;;;17.48;100.00;96485.91;5088176;28;20223;-87
2022/06/13 03:47:50;;;;;;;2.60;1.77;;;;;;;17.37;100.00;96471.41;5087368;28;20303;-87
2022/06/13 03:50:26;;;;;;;2.10;1.90;;;;;;;17.36;100.00;96476.06;5081691;28;20194;-87
2022/06/13 03:52:59;;;;;;;2.67;2.00;;;;;;;17.44;100.00;96480.16;5100356;28;20208;-87
2022/06/13 03:55:32;;;;;;;2.90;1.70;;;;;;;17.40;100.00;96488.09;5087898;28;20311;-87
2022/06/13 03:58:08;;;;;;;2.13;1.67;;;;;;;17.41;100.00;96480.72;5083025;28;20209;-87
2022/06/13 04:00:42;;;;;;;3.17;2.00;;;;;;;17.42;100.00;96478.81;5080373;28;20239;-87
2022/06/13 04:03:10;;;;;;;2.30;2.10;;;;;;;17.46;100.00;96485.34;5079312;28;20214;-87
2022/06/13 04:05:43;;;;;;;4.70;2.10;;;;;;;17.49;100.00;96493.03;5087228;28;20212;-86
2022/06/13 04:08:13;;;;;;;3.60;1.90;;;;;;;17.43;100.00;96491.38;5087991;28;20193;-87
2022/06/13 04:10:52;;;;;;;4.27;1.93;;;;;;;17.44;100.00;96490.28;5083970;28;20212;-87
2022/06/13 04:13:46;;;;;;;2.23;1.80;;;;;;;17.36;100.00;96489.72;5089208;28;20207;-87
2022/06/13 04:16:24;;;;;;;2.37;2.00;;;;;;;17.37;100.00;96485.91;5079234;28;20310;-87
2022/06/13 04:19:24;;;;;;;2.63;2.10;;;;;;;17.43;100.00;96483.19;5078816;28;20310;-86
2022/06/13 04:22:05;;;;;;;3.93;2.10;;;;;;;17.36;100.00;96472.50;5084143;28;20254;-87
2022/06/13 04:24:45;;;;;;;2.30;2.10;;;;;;;17.31;100.00;96484.25;5083987;28;20204;-87
2022/06/13 04:27:21;;;;;;;3.87;1.67;;;;;;;17.43;100.00;96475.81;5083720;28;20306;-86
2022/06/13 04:29:58;;;;;;;2.83;1.80;;;;;;;17.48;100.00;96483.19;5084697;28;20270;-87
2022/06/13 04:32:32;;;;;;;4.17;1.70;;;;;;;17.42;100.00;96479.63;5084429;28;20261;-86
2022/06/13 04:35:04;;;;;;;2.97;1.60;;;;;;;17.40;100.00;96482.63;5082902;28;20217;-87
2022/06/13 04:37:34;;;;;;;4.77;1.77;;;;;;;17.46;100.00;96491.63;5083660;28;20216;-86
2022/06/13 04:40:07;;;;;;;2.10;1.87;;;;;;;17.49;100.00;96488.38;5084138;28;20217;-87
2022/06/13 04:42:36;;;;;;;12.10;10.33;;;;;;;17.56;100.00;96505.31;5076036;28;20208;-87
2022/06/13 04:45:08;;;;;;;4.53;3.50;;;;;;;17.48;100.00;96500.38;5078907;28;20209;-87
2022/06/13 04:47:38;;;;;;;6.23;2.90;;;;;;;17.52;100.00;96509.69;5080193;28;20286;-87
2022/06/13 04:50:06;;;;;;;2.67;2.30;;;;;;;17.54;100.00;96503.94;5087360;28;20204;-87
2022/06/13 04:52:37;;;;;;;4.17;2.33;;;;;;;17.66;100.00;96501.81;5081767;28;20209;-90
2022/06/13 04:55:12;;;;;;;2.30;2.10;;;;;;;17.73;100.00;96513.28;5080310;28;20302;-90
2022/06/13 04:57:39;;;;;;;5.70;2.90;;;;;;;17.73;100.00;96518.75;5080571;28;20291;-87
2022/06/13 05:00:08;;;;;;;3.60;2.60;;;;;;;17.74;100.00;96518.50;5080547;28;20232;-87
2022/06/13 05:02:39;;;;;;;5.10;2.20;;;;;;;17.75;100.00;96516.56;5079529;28;20208;-85
2022/06/13 05:05:25;;;;;;;3.87;2.13;;;;;;;17.73;100.00;96526.94;5087211;28;20851;-87
2022/06/13 05:07:54;;;;;;;2.90;2.60;;;;;;;17.73;100.00;96521.47;5081566;28;20210;-87
2022/06/13 05:10:27;;;;;;;3.07;2.10;;;;;;;17.75;100.00;96516.56;5084494;28;20205;-87
2022/06/13 05:12:55;;;;;;;3.03;2.03;;;;;;;17.72;100.00;96506.19;5085690;28;20258;-86
2022/06/13 05:15:30;;;;;;;2.00;1.80;;;;;;;17.71;100.00;96510.81;5080777;28;20205;-86
2022/06/13 05:18:23;;;;;;;5.30;2.33;;;;;;;17.64;100.00;96507.53;5090878;28;20257;-88
2022/06/13 05:21:02;;;;;;;2.53;2.20;;;;;;;17.72;100.00;96523.38;5072118;28;20194;-88
2022/06/13 05:23:45;;;;;;;2.80;2.40;;;;;;;17.74;100.00;96536.78;5083243;28;20212;-88
2022/06/13 05:26:13;;;;;;;2.10;1.90;;;;;;;17.70;100.00;96524.75;5075797;28;20208;-88
2022/06/13 05:28:43;;;;;;;4.23;2.50;;;;;;;17.69;100.00;96520.41;5083786;28;20236;-86
2022/06/13 05:31:18;;;;;;;3.40;2.20;;;;;;;17.67;100.00;96526.13;5071268;28;20301;-89
2022/06/13 05:33:47;;;;;;;3.30;2.70;;;;;;;17.75;100.00;96530.22;5081936;28;20295;-89
2022/06/13 05:36:18;;;;;;;3.80;1.90;;;;;;;17.75;100.00;96538.44;5082017;28;20197;-88
2022/06/13 05:38:49;;;;;;;4.13;2.10;;;;;;;17.67;100.00;96530.78;5081779;28;20252;-88
2022/06/13 05:41:17;;;;;;;4.20;2.73;;;;;;;17.69;100.00;96539.50;5087282;28;20425;-91
2022/06/13 05:43:44;;;;;;;3.03;2.10;;;;;;;17.71;100.00;96531.84;5080505;28;20270;-92
2022/06/13 05:46:17;;;;;;;3.57;2.73;;;;;;;17.72;100.00;96533.50;5075311;28;20204;-89
2022/06/13 05:48:44;;;;;;;3.57;2.50;;;;;;;17.74;100.00;96531.31;5087886;28;20294;-92
2022/06/13 05:51:11;;;;;;;2.10;1.90;;;;;;;17.83;100.00;96524.22;5076825;28;20197;-91
2022/06/13 05:53:38;;;;;;;3.10;2.40;;;;;;;17.86;100.00;96526.44;5083959;28;20236;-91
2022/06/13 05:56:08;;;;;;;5.03;2.30;;;;;;;17.94;100.00;96541.47;5080895;28;20216;-91
2022/06/13 05:58:36;;;;;;;4.83;2.20;;;;;;;17.88;100.00;96537.06;5087358;28;20232;-91
2022/06/13 06:01:03;;;;;;;3.07;1.90;;;;;;;17.79;100.00;96547.69;5081850;28;20200;-89
2022/06/13 06:03:31;;;;;;;3.93;2.30;;;;;;;17.72;100.00;96549.88;5080966;28;20300;-90
2022/06/13 06:06:00;;;;;;;5.60;2.90;;;;;;;17.75;100.00;96552.09;5078897;28;20221;-89
2022/06/13 06:08:30;;;;;;;2.93;2.30;;;;;;;17.78;100.00;96544.16;5088300;28;20200;-91
2022/06/13 06:10:59;;;;;;;2.67;2.40;;;;;;;17.75;100.00;96557.53;5090545;28;20303;-90
2022/06/13 06:13:30;;;;;;;2.30;2.10;;;;;;;17.66;100.00;96564.63;5084041;28;20212;-91
2022/06/13 06:15:58;;;;;;;6.13;2.67;;;;;;;17.65;100.00;96557.53;5081771;28;20253;-89
2022/06/13 06:18:28;;;;;;;4.27;2.00;;;;;;;17.77;100.00;96544.44;5083503;28;20212;-90
2022/06/13 06:20:56;;;;;;;8.20;2.70;;;;;;;17.80;100.00;96557.53;5080548;28;20217;-91
2022/06/13 06:23:23;;;;;;;2.60;2.37;;;;;;;17.72;100.00;96561.63;5082590;28;20212;-89
2022/06/13 06:25:50;;;;;;;2.83;2.20;;;;;;;17.80;100.00;96564.91;5085879;28;20217;-91
2022/06/13 06:28:20;;;;;;;4.47;2.10;;;;;;;17.87;100.00;96557.28;5080016;28;20206;-92
2022/06/13 06:30:49;;;;;;;2.50;2.10;;;;;;;17.92;100.00;96560.03;5076168;28;20205;-91
2022/06/13 06:33:16;;;;;;;3.03;2.10;;;;;;;17.97;100.00;96557.28;5078046;28;20228;-91
2022/06/13 06:35:43;;;;;;;4.13;2.33;;;;;;;17.98;100.00;96559.75;5084922;28;20205;-89
2022/06/13 06:38:11;;;;;;;4.90;2.60;;;;;;;17.95;100.00;96554.81;5082474;28;20205;-91
2022/06/13 06:40:38;;;;;;;8.47;6.33;;;;;;;18.05;100.00;96573.13;5088732;28;20232;-90
2022/06/13 06:43:06;;;;;;;2.47;2.20;;;;;;;18.12;100.00;96566.31;5090949;28;20229;-91
2022/06/13 06:45:34;;;;;;;4.03;2.70;;;;;;;18.23;100.00;96569.88;5080918;28;20197;-89
2022/06/13 06:48:03;;;;;;;4.67;2.87;;;;;;;18.33;100.00;96569.88;5081929;28;20232;-90
2022/06/13 06:50:32;;;;;;;5.30;3.53;;;;;;;18.39;100.00;96576.97;5073340;28;20213;-90
2022/06/13 06:53:00;;;;;;;2.40;2.07;;;;;;;18.42;100.00;96605.69;5074260;28;20220;-89
2022/06/13 07:01:03;;;;;;;5.10;2.73;;;;;;;18.45;100.00;96600.50;5092615;28;20289;-90
2022/06/13 07:03:32;;;;;;;2.10;1.90;;;;;;;18.32;100.00;96608.41;5076478;28;20205;-91
2022/06/13 07:05:59;;;;;;;2.43;2.17;;;;;;;18.23;100.00;96599.94;5090852;28;20560;-90
2022/06/13 07:08:27;;;;;;;3.90;2.60;;;;;;;18.29;100.00;96595.31;5075756;28;20262;-91
2022/06/13 07:11:53;;;;;;;2.40;2.20;;;;;;;18.34;100.00;96593.38;5076518;28;20193;-88
2022/06/13 07:13:42;;;;;;;2.93;2.10;;;;;;;18.40;100.00;96584.09;5091614;28;20193;-90
2022/06/13 07:16:09;;;;;;;4.63;2.20;;;;;;;18.47;100.00;96581.88;5083225;28;20228;-91
2022/06/13 07:18:38;;;;;;;2.30;2.10;;;;;;;18.49;100.00;96582.44;5080855;28;20213;-90
2022/06/13 07:21:05;;;;;;;4.30;2.20;;;;;;;18.43;100.00;96582.72;5089490;28;20217;-89
2022/06/13 07:23:32;;;;;;;2.30;2.10;;;;;;;18.56;100.00;96584.88;5082731;28;20231;-90
2022/06/13 07:25:59;;;;;;;3.63;2.13;;;;;;;18.67;100.00;96581.09;5080339;28;20201;-89
2022/06/13 07:28:27;;;;;;;2.43;2.10;;;;;;;18.78;100.00;96593.66;5086523;28;20196;-89
2022/06/13 07:30:54;;;;;;;3.27;2.10;;;;;;;18.80;100.00;96582.41;5077107;28;20205;-89
2022/06/13 07:33:21;;;;;;;3.43;1.83;;;;;;;18.79;100.00;96578.06;5078558;28;20201;-89
2022/06/13 07:35:50;;;;;;;2.50;1.90;;;;;;;18.92;100.00;96584.88;5075883;28;20263;-91
2022/06/13 07:38:17;;;;;;;3.03;2.22;;;;;;;18.96;100.00;96589.53;5070973;28;20208;-89
2022/06/13 07:40:46;;;;;;;2.58;1.85;;;;;;;19.01;100.00;96580.47;5067130;28;20213;-89
2022/06/13 07:43:19;;;;;;;3.53;2.10;;;;;;;18.91;100.00;96581.31;5068322;28;20208;-89
2022/06/13 07:45:46;;;;;;;2.75;2.22;;;;;;;19.08;100.00;96587.28;5066543;28;20401;-89
2022/06/13 07:48:13;;;;;;;4.65;2.13;;;;;;;19.45;100.00;96589.63;5051741;28;20342;-89
2022/06/13 07:50:41;;;;;;;2.20;2.00;;;;;;;19.53;100.00;96580.03;5031761;28;20205;-90
2022/06/13 07:53:10;;;;;;;2.58;2.33;;;;;;;19.58;100.00;96588.22;5031874;28;20245;-88
2022/06/13 07:55:37;;;;;;;3.60;2.70;;;;;;;19.60;100.00;96573.13;5032551;28;20206;-88
2022/06/13 07:58:05;;;;;;;2.28;2.00;;;;;;;19.63;100.00;96580.81;5040205;28;20206;-89
2022/06/13 08:00:35;;;;;;;3.20;2.72;;;;;;;19.62;100.00;96579.16;5043804;28;20233;-90
2022/06/13 08:03:05;;;;;;;2.75;2.50;;;;;;;19.64;100.00;96579.72;5047996;28;20233;-89
2022/06/13 08:05:32;;;;;;;2.40;2.13;;;;;;;19.59;100.00;96578.91;5044883;28;20229;-89
2022/06/13 08:07:59;;;;;;;3.75;2.00;;;;;;;19.52;100.00;96590.16;5049526;28;20210;-90
2022/06/13 08:10:28;;;;;;;4.47;2.17;;;;;;;19.41;100.00;96588.53;5049780;28;20219;-87
2022/06/13 08:12:55;;;;;;;2.25;2.05;;;;;;;19.36;100.00;96585.81;5068666;28;20208;-87
2022/06/13 08:15:24;;;;;;;3.95;2.00;;;;;;;19.31;100.00;96593.25;5043886;28;20238;-87
2022/06/13 08:17:51;;;;;;;2.88;2.20;;;;;;;19.32;100.00;96595.69;5057622;28;20201;-87
2022/06/13 08:20:18;;;;;;;4.53;2.25;;;;;;;19.33;100.00;96585.56;5057021;28;20315;-87
2022/06/13 08:22:48;;;;;;;3.58;2.47;;;;;;;19.44;100.00;96589.91;5065937;28;20216;-88
2022/06/13 08:25:21;;;;;;;3.38;2.22;;;;;;;19.56;100.00;96587.69;5047412;28;20185;-87
2022/06/13 08:27:49;;;;;;;2.50;2.17;;;;;;;19.66;100.00;96601.31;5069188;28;20201;-87
2022/06/13 08:30:16;;;;;;;2.13;1.98;;;;;;;19.67;100.00;96604.88;5049211;28;20209;-88
2022/06/13 08:32:44;;;;;;;4.40;2.47;;;;;;;19.63;100.00;96602.72;5039542;28;20267;-87
2022/06/13 08:35:12;;;;;;;3.40;2.40;;;;;;;19.65;100.00;96607.88;5040868;28;20193;-87
2022/06/13 08:37:39;;;;;;;4.53;2.20;;;;;;;19.78;100.00;96606.47;5042152;28;20219;-87
2022/06/13 08:40:08;;;;;;;3.50;2.20;;;;;;;19.89;100.00;96610.81;5041406;28;20240;-87
2022/06/13 08:42:41;;;;;;;2.33;2.15;;;;;;;19.85;100.00;96615.19;5038070;28;20304;-87
2022/06/13 08:45:18;;;;;;;2.58;1.98;;;;;;;19.75;100.00;96602.38;5041659;28;20209;-88
2022/06/13 08:47:47;;;;;;;2.80;2.00;;;;;;;19.69;100.00;96605.41;5044682;28;20327;-89
2022/06/13 08:50:37;;;;;;;4.00;2.28;;;;;;;19.74;100.00;96608.13;5042613;28;20205;-87
2022/06/13 08:53:11;;;;;;;4.22;2.67;;;;;;;19.74;100.00;96610.84;5040765;28;20221;-87
2022/06/13 08:55:45;;;;;;;3.13;2.83;;;;;;;19.74;100.00;96614.41;5057815;28;20212;-88
2022/06/13 08:58:20;;;;;;;5.53;3.40;;;;;;;19.70;100.00;96601.59;5041325;28;20212;-87
2022/06/13 09:00:55;;;;;;;5.72;3.75;;;;;;;19.71;100.00;96615.00;5054512;28;20323;-88
2022/06/13 09:03:29;;;;;;;6.43;3.90;;;;;;;19.69;100.00;96610.91;5040112;28;20236;-88
2022/06/13 09:06:02;;;;;;;5.07;3.75;;;;;;;19.56;100.00;96621.34;5050385;28;20196;-87
2022/06/13 09:08:36;;;;;;;9.25;4.90;;;;;;;19.46;100.00;96626.88;5059801;28;20203;-86
2022/06/13 09:11:08;;;;;;;5.18;4.05;;;;;;;19.38;100.00;96638.41;5039009;28;20205;-88
2022/06/13 09:13:42;;;;;;;6.43;4.00;;;;;;;19.24;100.00;96651.84;5056565;28;20201;-87
2022/06/13 09:16:14;;;;;;;7.68;4.40;;;;;;;19.22;100.00;96655.97;5055107;28;20236;-87
2022/06/13 09:18:48;;;;;;;9.87;4.10;;;;;;;19.04;100.00;96651.06;5054798;28;20241;-88
2022/06/13 09:21:23;;;;;;;9.20;4.53;;;;;;;18.94;100.00;96654.66;5036774;28;20276;-82
2022/06/13 09:24:01;;;;;;;9.50;4.63;;;;;;;18.96;100.00;96657.13;5044285;28;20205;-82
2022/06/13 09:26:34;;;;;;;8.02;4.70;;;;;;;19.02;100.00;96656.00;5044384;28;20301;-83
2022/06/13 09:29:11;;;;;;;6.78;4.63;;;;;;;19.04;100.00;96640.13;5064074;28;20204;-83
2022/06/13 09:31:42;;;;;;;7.25;5.03;;;;;;;19.45;100.00;96652.59;5043320;28;20277;-82
2022/06/13 09:34:13;;;;;;;5.18;4.57;;;;;;;19.56;100.00;96654.22;5034033;28;20232;-82
2022/06/13 09:36:47;;;;;;;5.22;4.60;;;;;;;19.50;100.00;96652.59;5045923;28;20213;-82
2022/06/13 09:39:18;;;;;;;5.53;5.03;;;;;;;19.71;100.00;96661.59;5047068;28;20205;-83
2022/06/13 09:42:00;;;;;;;4.45;3.85;;;;;;;19.74;100.00;96649.22;5035507;28;20229;-83
2022/06/13 09:44:39;;;;;;;5.32;3.72;;;;;;;19.89;100.00;96651.91;5049439;28;20261;-83
2022/06/13 09:47:18;;;;;;;6.70;4.35;;;;;;;20.08;100.00;96654.78;5039031;28;20300;-82
2022/06/13 09:49:56;;;;;;;7.85;4.43;;;;;;;20.22;100.00;96653.91;5060089;28;20903;-83
2022/06/13 09:52:34;;;;;;;8.50;5.55;;;;;;;20.33;100.00;96640.94;5073307;28;20266;-83
2022/06/13 09:55:09;;;;;;;7.70;4.25;;;;;;;20.55;100.00;96635.03;5058897;28;20201;-83
2022/06/13 09:57:47;;;;;;;6.72;4.10;;;;;;;20.76;100.00;96641.97;5059297;28;20219;-83
2022/06/13 10:00:19;;;;;;;5.32;4.57;;;;;;;20.93;100.00;96638.81;5059908;28;20224;-82
2022/06/13 10:03:01;;;;;;;3.95;3.35;;;;;;;20.92;100.00;96649.00;5059745;28;20229;-83
2022/06/13 10:05:38;;;;;;;4.15;3.67;;;;;;;20.90;100.00;96653.94;5055182;28;20432;-84
2022/06/13 10:08:17;;;;;;;3.67;3.25;;;;;;;20.74;100.00;96655.19;5062787;28;20212;-84
2022/06/13 10:10:49;;;;;;;5.07;3.58;;;;;;;20.63;100.00;96648.16;5072974;28;20316;-83
2022/06/13 10:13:28;;;;;;;3.58;3.28;;;;;;;20.55;100.00;96657.00;5052339;28;20319;-87
2022/06/13 10:16:05;;;;;;;6.90;4.18;;;;;;;20.57;100.00;96660.28;5068409;28;20425;-86
2022/06/13 10:18:58;;;;;;;5.80;3.58;;;;;;;20.61;100.00;96655.84;5062125;28;20205;-85
2022/06/13 10:21:33;;;;;;;5.30;3.70;;;;;;;20.72;100.00;96652.72;5064394;28;20312;-86
2022/06/13 10:24:14;;;;;;;5.78;3.70;;;;;;;20.85;100.00;96656.72;5065658;28;20228;-85
2022/06/13 10:26:52;;;;;;;4.85;3.80;;;;;;;20.69;100.00;96649.72;5070168;28;20244;-85
2022/06/13 10:29:42;;;;;;;3.88;3.40;;;;;;;20.73;100.00;96642.59;5051275;28;20201;-85
2022/06/13 10:32:21;;;;;;;4.10;3.40;;;;;;;20.70;100.00;96648.63;5063005;28;20205;-85
2022/06/13 10:35:02;;;;;;;4.35;3.30;;;;;;;20.58;100.00;96646.28;5070437;28;20231;-85
2022/06/13 10:37:38;;;;;;;5.38;3.55;;;;;;;20.46;100.00;96648.56;5077435;28;20211;-84
2022/06/13 10:40:07;;;;;;;5.88;3.58;;;;;;;20.64;100.00;96647.03;5071088;28;20218;-84
2022/06/13 10:42:38;;;;;;;4.88;3.60;;;;;;;20.65;100.00;96640.47;5075270;28;20217;-85
2022/06/13 10:45:10;;;;;;;5.32;3.80;;;;;;;20.74;100.00;96646.97;5056850;28;20214;-86
2022/06/13 10:47:45;;;;;;;6.68;3.92;;;;;;;20.84;100.00;96648.81;5062928;28;20240;-83
2022/06/13 10:50:18;;;;;;;6.80;3.65;;;;;;;21.03;100.00;96645.03;5104191;28;20283;-85
2022/06/13 10:52:49;;;;;;;5.25;3.63;;;;;;;21.28;100.00;96656.88;5096093;28;20215;-85
2022/06/13 10:55:21;;;;;;;5.85;4.40;;;;;;;21.64;100.00;96657.31;5077154;28;20208;-81
2022/06/13 10:57:52;;;;;;;5.55;3.90;;;;;;;21.75;100.00;96664.34;5088972;28;20302;-84
2022/06/13 11:00:22;;;;;;;5.45;3.97;;;;;;;21.80;100.00;96670.56;5089696;28;20213;-82
2022/06/13 11:02:51;;;;;;;5.78;3.92;;;;;;;21.90;100.00;96670.44;5087510;28;20216;-81
2022/06/13 11:05:23;;;;;;;5.82;4.10;;;;;;;21.95;100.00;96669.56;5089843;28;20207;-84
2022/06/13 11:07:55;;;;;;;7.13;4.03;;;;;;;22.10;100.00;96672.16;5094600;28;20204;-83
2022/06/13 11:10:34;;;;;;;7.13;4.00;;;;;;;22.10;100.00;96654.84;5084773;28;20202;-84
2022/06/13 11:13:03;;;;;;;10.98;4.15;;;;;;;22.11;100.00;96654.53;5084416;28;20215;-84
2022/06/13 11:24:14;;;;;;;6.75;4.20;;;;;;;22.16;100.00;96661.88;5077209;28;20308;-86
2022/06/13 11:29:29;;;;;;;6.60;4.60;;;;;;;22.18;98.50;96681.69;5103369;28;20303;-86
2022/06/13 11:31:58;;;;;;;6.50;4.22;;;;;;;21.84;100.00;96668.88;5084478;28;20204;-86
2022/06/13 11:34:32;;;;;;;6.43;4.50;;;;;;;21.60;100.00;96659.84;5089173;28;20263;-86
2022/06/13 11:37:06;;;;;;;7.40;4.50;;;;;;;21.69;100.00;96660.81;5088118;28;20199;-86
2022/06/13 11:39:39;;;;;;;5.60;3.97;;;;;;;21.63;100.00;96655.69;5089444;28;20228;-86
2022/06/13 11:42:18;;;;;;;4.50;4.10;;;;;;;21.54;100.00;96658.25;5086208;28;20224;-87
2022/06/13 11:44:51;;;;;;;7.10;4.28;;;;;;;21.53;100.00;96662.09;5086086;28;20200;-86
2022/06/13 11:47:21;;;;;;;6.40;4.78;;;;;;;21.55;100.00;96679.13;5074635;28;20236;-85
2022/06/13 11:49:53;;;;;;;6.95;4.45;;;;;;;21.41;100.00;96681.75;5063046;28;20297;-86
2022/06/13 11:55:32;;;;;;;5.47;4.45;;;;;;;21.51;100.00;96665.16;5061282;28;20307;-86
2022/06/13 11:58:01;;;;;;;4.88;4.38;;;;;;;21.59;100.00;96655.47;5066157;28;20235;-85
2022/06/13 12:00:33;;;;;;;7.20;4.82;;;;;;;21.54;100.00;96661.00;5069578;28;20204;-86
2022/06/13 12:03:16;;;;;;;5.18;4.57;;;;;;;21.41;100.00;96650.72;5088324;28;20223;-86
2022/06/13 12:05:43;;;;;;;8.85;5.40;;;;;;;21.32;100.00;96639.56;5076981;28;20205;-85
2022/06/13 12:08:24;;;;;;;8.18;6.15;;;;;;;21.32;100.00;96638.72;5066256;28;20211;-86
2022/06/13 12:11:05;;;;;;;6.63;4.03;;;;;;;21.41;100.00;96656.22;5070083;28;20205;-85
2022/06/13 12:13:34;;;;;;;7.25;4.28;;;;;;;21.35;100.00;96651.91;5065766;28;20201;-87